Terminal Aerodrome Forecast
Issued by NWS Medford, OR

Home | Current Version | Previous Version | Text Only | Print | Product List | Glossary On
Versions: 1 2 3 4 5 6 7 8 9 10 11 12 13 14 15 16 17 18 19
040
FTUS46 KMFR 171725
TAFMFR
TAF
KMFR 171725Z 1718/1818 00000KT 1/2SM FG VV002 WS020/20040KT
     FM171900 15011G18KT P6SM SCT025 OVC060 WS020/21040KT
     FM180600 VRB03KT P6SM -RA SCT015 OVC035=

USA.gov is the U.S. government's official web portal to all federal, state and local government web resources and services.